Time;durP1;ratioP1;P1;durP2;ratioP2;P2;SDS_P1;SDS_P2;PMS_P1;PMS_P2;Temp;Humidity;BMP_temperature;BMP_pressure;BME280_temperature;BME280_humidity;BME280_pressure;Samples;Min_cycle;Max_cycle;Signal;HPM_P1;HPM_P2
2021/09/29 00:02:21;;;;;;;9.73;1.90;;;16.00;99.90;;;;;;5093000;28;20028;-76
2021/09/29 00:04:47;;;;;;;8.15;1.75;;;15.90;99.90;;;;;;5092978;28;20106;-76
2021/09/29 00:07:13;;;;;;;12.40;2.08;;;15.90;99.90;;;;;;5093209;28;20456;-76
2021/09/29 00:09:38;;;;;;;8.38;2.17;;;15.90;99.90;;;;;;5094449;28;20040;-75
2021/09/29 00:12:04;;;;;;;11.93;2.17;;;15.80;99.90;;;;;;5096713;28;20472;-75
2021/09/29 00:14:30;;;;;;;10.60;2.30;;;15.70;99.90;;;;;;5096739;28;20465;-76
2021/09/29 00:16:56;;;;;;;12.57;2.72;;;15.70;99.90;;;;;;5096722;28;20019;-75
2021/09/29 00:19:22;;;;;;;11.43;2.65;;;15.60;99.90;;;;;;5096930;28;20025;-74
2021/09/29 00:21:47;;;;;;;11.40;2.70;;;15.60;99.90;;;;;;5096538;28;20110;-75
2021/09/29 00:24:13;;;;;;;8.90;2.28;;;15.50;99.90;;;;;;5096827;28;20032;-75
2021/09/29 00:26:38;;;;;;;13.60;2.08;;;15.50;99.90;;;;;;5096535;28;20107;-75
2021/09/29 00:29:04;;;;;;;8.40;2.15;;;15.50;99.90;;;;;;5096496;28;20024;-75
2021/09/29 00:34:13;;;;;;;7.35;1.95;;;15.50;99.90;;;;;;5096399;28;20447;-76
2021/09/29 00:36:44;;;;;;;11.43;2.47;;;15.40;99.90;;;;;;5096365;28;20099;-75
2021/09/29 00:39:11;;;;;;;12.00;2.60;;;15.40;99.90;;;;;;5096340;28;20503;-75
2021/09/29 00:41:38;;;;;;;12.75;2.40;;;15.40;99.90;;;;;;5096239;28;20085;-75
2021/09/29 00:44:05;;;;;;;9.25;2.03;;;15.40;99.90;;;;;;5096185;28;20081;-75
2021/09/29 00:46:31;;;;;;;14.50;2.35;;;15.30;99.90;;;;;;5096708;28;20149;-75
2021/09/29 00:48:57;;;;;;;11.38;3.10;;;15.20;99.90;;;;;;5096096;28;20035;-76
2021/09/29 00:51:23;;;;;;;11.13;2.50;;;15.20;99.90;;;;;;5096017;28;20024;-75
2021/09/29 00:53:51;;;;;;;12.95;2.80;;;15.30;99.90;;;;;;5096278;28;20376;-75
2021/09/29 00:56:17;;;;;;;12.00;2.55;;;15.30;99.90;;;;;;5094743;28;20016;-75
2021/09/29 00:58:43;;;;;;;8.52;2.65;;;15.30;99.90;;;;;;5094546;28;20392;-74
2021/09/29 01:01:09;;;;;;;12.50;2.03;;;15.30;99.90;;;;;;5095894;28;20024;-76
2021/09/29 01:03:35;;;;;;;10.40;2.28;;;15.40;99.90;;;;;;5096603;28;20424;-76
2021/09/29 01:06:05;;;;;;;10.75;2.33;;;15.30;99.90;;;;;;5096009;28;20032;-75
2021/09/29 01:08:39;;;;;;;13.88;2.67;;;15.30;99.90;;;;;;5095750;28;20032;-75
2021/09/29 01:11:56;;;;;;;9.85;1.85;;;15.30;99.90;;;;;;5095230;28;20032;-76
2021/09/29 01:14:44;;;;;;;10.60;1.92;;;15.30;99.90;;;;;;5050694;28;20032;-75
2021/09/29 01:17:12;;;;;;;9.73;1.73;;;15.20;99.90;;;;;;5095457;28;20024;-75
2021/09/29 01:19:46;;;;;;;9.63;2.08;;;15.20;99.90;;;;;;5094931;28;20028;-76
2021/09/29 01:22:25;;;;;;;10.52;2.08;;;15.20;99.90;;;;;;5095769;28;20043;-75
2021/09/29 01:24:55;;;;;;;10.68;2.65;;;15.20;99.90;;;;;;5095976;28;20078;-75
2021/09/29 01:27:23;;;;;;;10.70;2.70;;;15.30;99.90;;;;;;5095367;28;20533;-75
2021/09/29 01:29:51;;;;;;;9.88;2.30;;;15.30;99.90;;;;;;5095277;28;20016;-76
2021/09/29 01:32:19;;;;;;;9.70;2.00;;;15.30;99.90;;;;;;5095196;28;20099;-75
2021/09/29 01:34:48;;;;;;;12.43;2.00;;;15.20;99.90;;;;;;5095194;28;20078;-75
2021/09/29 01:37:14;;;;;;;8.20;2.10;;;15.20;99.90;;;;;;5095443;28;20047;-74
2021/09/29 01:39:41;;;;;;;9.70;2.00;;;15.20;99.90;;;;;;5095096;28;20032;-76
2021/09/29 01:42:06;;;;;;;10.15;2.28;;;15.20;99.90;;;;;;5095043;28;20492;-74
2021/09/29 01:44:33;;;;;;;9.50;2.58;;;15.20;99.90;;;;;;5095009;28;20051;-75
2021/09/29 01:47:00;;;;;;;7.80;1.85;;;15.30;99.90;;;;;;5094957;28;20537;-75
2021/09/29 01:49:35;;;;;;;9.73;2.05;;;15.30;99.90;;;;;;5094941;28;20027;-76
2021/09/29 01:52:04;;;;;;;13.75;2.17;;;15.30;99.90;;;;;;5095097;28;20028;-75
2021/09/29 01:54:30;;;;;;;10.25;2.60;;;15.20;99.90;;;;;;5094765;28;20077;-76
2021/09/29 01:56:56;;;;;;;9.10;2.25;;;15.20;99.90;;;;;;5094772;28;20020;-76
2021/09/29 01:59:23;;;;;;;8.45;2.38;;;15.20;99.90;;;;;;5094991;28;20043;-75
2021/09/29 02:01:52;;;;;;;12.13;2.22;;;15.30;99.90;;;;;;5095246;28;20020;-76
2021/09/29 02:04:19;;;;;;;9.88;2.50;;;15.30;99.90;;;;;;5094638;28;20042;-75
2021/09/29 02:06:52;;;;;;;8.00;2.05;;;15.20;99.90;;;;;;5093249;28;20410;-75
2021/09/29 02:09:19;;;;;;;7.75;1.70;;;15.30;99.90;;;;;;5094579;28;20532;-75
2021/09/29 02:11:46;;;;;;;3.60;1.50;;;15.30;99.90;;;;;;5094695;28;20056;-75
2021/09/29 02:14:12;;;;;;;8.40;2.30;;;15.30;99.90;;;;;;5094743;28;20170;-75
2021/09/29 02:16:38;;;;;;;9.98;2.10;;;15.40;99.90;;;;;;5094404;28;20023;-75
2021/09/29 02:19:04;;;;;;;6.20;1.80;;;15.40;99.90;;;;;;5094325;28;20469;-75
2021/09/29 02:21:30;;;;;;;6.82;1.58;;;15.40;99.90;;;;;;5094262;28;20028;-75
2021/09/29 02:23:56;;;;;;;9.23;1.80;;;15.30;99.90;;;;;;5094279;28;20035;-75
2021/09/29 02:26:23;;;;;;;5.80;1.52;;;15.30;99.90;;;;;;5094270;28;20369;-75
2021/09/29 02:28:49;;;;;;;2.28;0.95;;;15.20;99.90;;;;;;5093243;28;20024;-75
2021/09/29 02:31:16;;;;;;;3.40;0.90;;;15.10;99.90;;;;;;5093659;28;20523;-76
2021/09/29 02:33:41;;;;;;;3.38;0.60;;;15.00;99.90;;;;;;5093797;28;20026;-75
2021/09/29 02:36:07;;;;;;;1.70;0.70;;;14.90;99.90;;;;;;5094082;28;20024;-75
2021/09/29 02:38:33;;;;;;;2.05;0.45;;;14.80;99.90;;;;;;5094311;28;20027;-76
2021/09/29 02:40:59;;;;;;;2.92;0.50;;;14.80;99.90;;;;;;5094289;28;20108;-75
2021/09/29 02:43:24;;;;;;;1.10;0.50;;;14.80;99.90;;;;;;5093963;28;20047;-76
2021/09/29 02:45:50;;;;;;;2.72;0.60;;;14.80;99.90;;;;;;5093871;28;20107;-74
2021/09/29 02:48:16;;;;;;;1.30;0.57;;;14.70;99.90;;;;;;5094150;28;20032;-75
2021/09/29 02:50:41;;;;;;;3.85;0.88;;;14.60;99.90;;;;;;5092462;28;20024;-76
2021/09/29 02:53:07;;;;;;;2.47;0.63;;;14.70;99.90;;;;;;5094045;28;20100;-75
2021/09/29 02:55:33;;;;;;;3.40;0.80;;;14.70;99.90;;;;;;5093739;28;20024;-75
2021/09/29 02:57:58;;;;;;;1.10;0.50;;;14.70;99.90;;;;;;5093982;28;20028;-75
2021/09/29 03:00:24;;;;;;;1.08;0.35;;;14.70;99.90;;;;;;5093958;28;20017;-76
2021/09/29 03:02:49;;;;;;;0.77;0.60;;;14.80;99.90;;;;;;5093931;28;20480;-75
2021/09/29 03:05:15;;;;;;;2.20;0.70;;;14.80;99.90;;;;;;5093906;28;20020;-76
2021/09/29 03:07:41;;;;;;;4.32;0.80;;;14.70;99.90;;;;;;5093602;28;20388;-75
2021/09/29 03:10:07;;;;;;;1.75;0.50;;;14.80;99.90;;;;;;5093381;28;20515;-75
2021/09/29 03:12:32;;;;;;;2.78;0.75;;;14.80;99.90;;;;;;5093984;28;20032;-75
2021/09/29 03:14:58;;;;;;;2.53;0.70;;;14.80;99.90;;;;;;5093756;28;20032;-76
2021/09/29 03:17:24;;;;;;;1.75;0.60;;;14.70;99.90;;;;;;5093704;28;20034;-76
2021/09/29 03:19:49;;;;;;;6.63;0.93;;;14.70;99.90;;;;;;5093875;28;20024;-75
2021/09/29 03:22:15;;;;;;;2.78;0.70;;;14.70;99.90;;;;;;5093683;28;20446;-75
2021/09/29 03:24:41;;;;;;;3.00;1.67;;;14.70;99.90;;;;;;5093347;28;20069;-76
2021/09/29 03:27:07;;;;;;;0.95;0.60;;;14.70;99.90;;;;;;5093352;28;20046;-76
2021/09/29 03:29:33;;;;;;;1.73;0.55;;;14.70;99.90;;;;;;5093333;28;20383;-75
2021/09/29 03:31:58;;;;;;;5.75;0.93;;;14.70;99.90;;;;;;5093497;28;20031;-75
2021/09/29 03:34:24;;;;;;;3.17;0.57;;;14.60;99.90;;;;;;5093287;28;20047;-76
2021/09/29 03:36:50;;;;;;;3.72;0.70;;;14.50;99.90;;;;;;5093237;28;20059;-75
2021/09/29 03:39:15;;;;;;;1.52;0.63;;;14.50;99.90;;;;;;5093181;28;20024;-75
2021/09/29 03:41:41;;;;;;;4.90;1.02;;;14.50;99.90;;;;;;5091956;28;20024;-75
2021/09/29 03:44:07;;;;;;;1.65;0.80;;;14.50;99.90;;;;;;5096137;28;20028;-75
2021/09/29 03:46:33;;;;;;;3.03;0.80;;;14.50;99.90;;;;;;5097309;28;20454;-76
2021/09/29 03:48:59;;;;;;;4.40;1.00;;;14.50;99.90;;;;;;5097251;28;20107;-75
2021/09/29 03:51:25;;;;;;;2.47;0.73;;;14.50;99.90;;;;;;5095855;28;20495;-75
2021/09/29 03:53:50;;;;;;;1.95;0.93;;;14.40;99.90;;;;;;5097194;28;20017;-76
2021/09/29 03:56:16;;;;;;;2.20;0.65;;;14.30;99.90;;;;;;5097136;28;20056;-74
2021/09/29 03:58:41;;;;;;;4.97;0.98;;;14.30;99.90;;;;;;5097382;28;20016;-75
2021/09/29 04:01:07;;;;;;;2.63;0.75;;;14.20;99.90;;;;;;5097353;28;20085;-75
2021/09/29 04:03:33;;;;;;;4.13;0.88;;;14.20;99.90;;;;;;5096943;28;20438;-75
2021/09/29 04:05:59;;;;;;;3.05;0.73;;;14.20;99.90;;;;;;5096948;28;20476;-75
2021/09/29 04:08:25;;;;;;;3.38;0.95;;;14.20;99.90;;;;;;5096884;28;20042;-75
2021/09/29 04:10:51;;;;;;;1.75;0.70;;;14.20;99.90;;;;;;5096601;28;20040;-75
2021/09/29 04:13:16;;;;;;;2.42;0.75;;;14.10;99.90;;;;;;5097393;28;20043;-75
2021/09/29 04:15:42;;;;;;;1.27;0.70;;;14.10;99.90;;;;;;5096791;28;20028;-76
2021/09/29 04:18:07;;;;;;;2.17;0.95;;;14.10;99.90;;;;;;5097042;28;20022;-75
2021/09/29 04:20:33;;;;;;;2.35;0.70;;;14.00;99.90;;;;;;5096603;28;20553;-75
2021/09/29 04:22:59;;;;;;;3.60;0.90;;;14.00;99.90;;;;;;5096639;28;20187;-74
2021/09/29 04:25:25;;;;;;;2.88;1.05;;;14.00;99.90;;;;;;5096871;28;20046;-75
2021/09/29 04:27:51;;;;;;;1.48;0.80;;;13.80;99.90;;;;;;5096829;28;20531;-76
2021/09/29 04:30:17;;;;;;;1.25;0.82;;;13.80;99.90;;;;;;5096694;28;20024;-75
2021/09/29 04:32:44;;;;;;;2.08;0.80;;;13.70;99.90;;;;;;5096683;28;20024;-74
2021/09/29 04:35:10;;;;;;;4.35;1.00;;;13.70;99.90;;;;;;5096365;28;20028;-75
2021/09/29 04:37:37;;;;;;;1.13;0.80;;;13.70;99.90;;;;;;5096610;28;20012;-75
2021/09/29 04:40:04;;;;;;;2.10;1.00;;;13.70;99.90;;;;;;5096861;28;20476;-75
2021/09/29 04:42:30;;;;;;;1.27;0.90;;;13.50;99.90;;;;;;5096167;28;20082;-75
2021/09/29 04:44:55;;;;;;;3.60;1.00;;;13.50;99.90;;;;;;5096176;28;20430;-74
2021/09/29 04:47:21;;;;;;;1.92;0.85;;;13.50;99.90;;;;;;5096171;28;20020;-75
2021/09/29 04:49:47;;;;;;;4.13;1.20;;;13.50;99.90;;;;;;5096112;28;20062;-75
2021/09/29 04:52:13;;;;;;;2.45;0.80;;;13.50;99.90;;;;;;5095980;28;20483;-75
2021/09/29 04:54:41;;;;;;;1.90;0.68;;;13.50;99.90;;;;;;5095186;28;20392;-75
2021/09/29 04:57:08;;;;;;;1.92;0.95;;;13.40;99.90;;;;;;5095942;28;20016;-75
2021/09/29 04:59:34;;;;;;;2.72;0.70;;;13.40;99.90;;;;;;5096488;28;20069;-75
2021/09/29 05:02:01;;;;;;;3.25;0.93;;;13.40;99.90;;;;;;5096445;28;20414;-75
2021/09/29 05:04:27;;;;;;;2.10;0.82;;;13.40;99.90;;;;;;5095830;28;20399;-75
2021/09/29 05:06:55;;;;;;;4.43;1.35;;;13.40;99.90;;;;;;5095824;28;20028;-75
2021/09/29 05:09:22;;;;;;;4.05;1.13;;;13.40;99.90;;;;;;5095566;28;20052;-75
2021/09/29 05:12:22;;;;;;;3.85;1.00;;;13.40;99.90;;;;;;5095641;28;20058;-76
2021/09/29 05:14:48;;;;;;;;;;;13.20;99.90;;;;;;5091907;28;20447;-75
2021/09/29 05:17:13;;;;;;;6.35;0.88;;;13.30;99.90;;;;;;5095830;28;19908;-75
2021/09/29 05:19:39;;;;;;;2.70;1.00;;;13.30;99.90;;;;;;5095739;28;20024;-74
2021/09/29 05:22:07;;;;;;;1.42;0.90;;;13.20;99.90;;;;;;5095795;28;20024;-74
2021/09/29 05:24:32;;;;;;;1.55;0.73;;;13.20;99.90;;;;;;5095454;28;20043;-75
2021/09/29 05:26:58;;;;;;;3.22;0.90;;;13.10;99.90;;;;;;5095405;28;20059;-75
2021/09/29 05:29:25;;;;;;;3.88;1.02;;;13.00;99.90;;;;;;5095879;28;20028;-75
2021/09/29 05:31:51;;;;;;;4.80;1.42;;;13.10;99.90;;;;;;5095232;28;20114;-75
2021/09/29 05:34:17;;;;;;;3.75;1.00;;;13.00;99.90;;;;;;5095254;28;20048;-74
2021/09/29 05:36:45;;;;;;;1.75;0.82;;;13.00;99.90;;;;;;5095195;28;20024;-75
2021/09/29 05:39:12;;;;;;;2.30;0.90;;;12.90;99.90;;;;;;5095675;28;20024;-75
2021/09/29 05:41:37;;;;;;;3.40;1.38;;;12.90;99.90;;;;;;5095377;28;20031;-75
2021/09/29 05:44:03;;;;;;;1.73;0.80;;;13.00;99.90;;;;;;5095313;28;20468;-75
2021/09/29 05:46:30;;;;;;;8.18;1.65;;;13.00;99.90;;;;;;5094998;28;20027;-74
2021/09/29 05:48:56;;;;;;;4.88;1.10;;;13.00;99.90;;;;;;5094985;28;20032;-74
2021/09/29 05:51:22;;;;;;;3.67;1.27;;;12.90;99.90;;;;;;5095100;28;20052;-74
2021/09/29 05:53:47;;;;;;;2.78;1.02;;;12.90;99.90;;;;;;5094844;28;20056;-74
2021/09/29 05:56:14;;;;;;;3.17;0.88;;;12.90;99.90;;;;;;5094781;28;20039;-75
2021/09/29 05:58:40;;;;;;;3.75;1.00;;;12.80;99.90;;;;;;5093500;28;20089;-74
2021/09/29 06:01:06;;;;;;;5.40;1.35;;;12.80;99.90;;;;;;5094746;28;20020;-75
2021/09/29 06:03:32;;;;;;;4.68;1.20;;;12.80;99.90;;;;;;5094650;28;20373;-74
2021/09/29 06:05:58;;;;;;;4.35;1.33;;;12.80;99.90;;;;;;5093362;28;20132;-75
2021/09/29 06:08:24;;;;;;;2.55;1.27;;;12.80;99.90;;;;;;5094913;28;20051;-74
2021/09/29 06:10:49;;;;;;;5.53;1.25;;;12.80;99.90;;;;;;5094102;28;20052;-75
2021/09/29 06:13:15;;;;;;;5.78;1.60;;;12.80;99.90;;;;;;5093182;28;20024;-74
2021/09/29 06:15:43;;;;;;;7.05;1.48;;;12.70;99.90;;;;;;5094448;28;20030;-75
2021/09/29 06:18:15;;;;;;;2.80;1.20;;;12.70;99.90;;;;;;5094415;28;20084;-75
2021/09/29 06:20:46;;;;;;;2.88;1.13;;;12.70;99.90;;;;;;5094450;28;20090;-75
2021/09/29 06:23:13;;;;;;;6.72;3.83;;;12.70;99.90;;;;;;5094585;28;20099;-75
2021/09/29 06:25:39;;;;;;;7.05;1.73;;;12.70;99.90;;;;;;5094273;28;20480;-74
2021/09/29 06:28:05;;;;;;;6.57;1.60;;;12.70;99.90;;;;;;5094498;28;20020;-75
2021/09/29 06:30:30;;;;;;;4.97;1.42;;;12.70;99.90;;;;;;5094142;28;20403;-75
2021/09/29 06:32:56;;;;;;;3.50;1.23;;;12.70;99.90;;;;;;5094425;28;20474;-75
2021/09/29 06:35:22;;;;;;;3.63;1.42;;;12.70;99.90;;;;;;5094065;28;20024;-75
2021/09/29 06:37:47;;;;;;;6.80;1.05;;;12.80;99.90;;;;;;5094033;28;20046;-75
2021/09/29 06:40:18;;;;;;;5.25;1.50;;;12.70;99.90;;;;;;5094024;28;20103;-75
2021/09/29 06:42:45;;;;;;;4.03;1.75;;;12.70;99.90;;;;;;5094258;28;20028;-75
2021/09/29 06:45:12;;;;;;;5.78;1.77;;;12.70;99.90;;;;;;5093945;28;20035;-74
2021/09/29 06:47:39;;;;;;;5.15;1.65;;;12.60;99.90;;;;;;5093893;28;20066;-76
2021/09/29 06:50:08;;;;;;;5.10;1.70;;;12.70;99.90;;;;;;5094169;28;20050;-76
2021/09/29 06:52:34;;;;;;;9.40;1.80;;;12.80;99.90;;;;;;5093664;28;20028;-76
2021/09/29 06:55:00;;;;;;;5.90;1.63;;;12.70;99.90;;;;;;5093774;28;20515;-75
2021/09/29 06:57:25;;;;;;;4.55;1.25;;;12.80;99.90;;;;;;5094035;28;20028;-75
2021/09/29 06:59:51;;;;;;;7.68;1.40;;;12.80;99.90;;;;;;5093707;28;20032;-75
2021/09/29 07:02:17;;;;;;;4.57;1.15;;;12.80;99.90;;;;;;5093672;28;20099;-74
2021/09/29 07:04:42;;;;;;;5.55;1.48;;;12.90;99.90;;;;;;5093619;28;20035;-76
2021/09/29 07:07:08;;;;;;;4.40;1.33;;;12.90;99.90;;;;;;5093584;28;20544;-75
2021/09/29 07:09:34;;;;;;;8.25;2.13;;;12.90;99.90;;;;;;5093351;28;20069;-74
2021/09/29 07:11:59;;;;;;;2.67;1.20;;;12.90;99.90;;;;;;5093470;28;20597;-76
2021/09/29 07:14:25;;;;;;;3.63;1.63;;;12.90;99.90;;;;;;5093793;28;20035;-75
2021/09/29 07:16:52;;;;;;;4.53;1.23;;;12.90;99.90;;;;;;5093701;28;20099;-75
2021/09/29 07:19:18;;;;;;;5.88;1.60;;;13.10;99.90;;;;;;5093063;28;20032;-75
2021/09/29 07:21:44;;;;;;;5.55;1.25;;;13.00;99.90;;;;;;5093360;28;20408;-74
2021/09/29 07:24:09;;;;;;;4.18;1.00;;;13.10;99.90;;;;;;5093368;28;20531;-75
2021/09/29 07:26:35;;;;;;;6.18;1.80;;;13.10;99.90;;;;;;5093373;28;20020;-75
2021/09/29 07:29:02;;;;;;;5.40;1.40;;;13.20;99.90;;;;;;5093316;28;20020;-74
2021/09/29 07:31:29;;;;;;;5.45;1.73;;;13.20;99.90;;;;;;5093232;28;20020;-75
2021/09/29 07:33:54;;;;;;;3.05;1.13;;;13.20;99.90;;;;;;5093306;28;20107;-76
2021/09/29 07:36:20;;;;;;;4.88;1.10;;;13.30;99.90;;;;;;5093118;28;20065;-74
2021/09/29 07:38:45;;;;;;;5.10;1.05;;;13.30;99.90;;;;;;5093271;28;20027;-76
2021/09/29 07:41:11;;;;;;;9.57;1.67;;;13.40;99.90;;;;;;5093277;28;20590;-75
2021/09/29 07:43:37;;;;;;;4.43;1.23;;;13.40;99.90;;;;;;5093193;28;20055;-75
2021/09/29 07:46:03;;;;;;;4.97;1.30;;;13.50;99.90;;;;;;5093181;28;20035;-75
2021/09/29 07:48:29;;;;;;;3.75;1.15;;;13.50;99.90;;;;;;5093164;28;20050;-75
2021/09/29 07:50:55;;;;;;;4.25;1.63;;;13.60;99.90;;;;;;5093314;28;20539;-76
2021/09/29 07:53:24;;;;;;;4.13;1.20;;;13.80;99.90;;;;;;5093084;28;20023;-76
2021/09/29 07:55:53;;;;;;;3.88;1.27;;;14.00;99.90;;;;;;5093333;28;20051;-76
2021/09/29 07:58:19;;;;;;;5.28;1.30;;;14.40;99.90;;;;;;5093407;28;20066;-75
2021/09/29 08:00:44;;;;;;;4.95;1.20;;;14.80;99.90;;;;;;5093375;28;20024;-75
2021/09/29 08:03:10;;;;;;;3.40;1.00;;;15.30;99.30;;;;;;5093032;28;20538;-75
2021/09/29 08:05:36;;;;;;;4.22;1.23;;;15.80;97.50;;;;;;5093006;28;20020;-75
2021/09/29 08:08:01;;;;;;;31.83;2.85;;;16.30;96.50;;;;;;5093004;28;20054;-76
2021/09/29 08:10:27;;;;;;;5.43;1.42;;;16.50;95.60;;;;;;5092677;28;20065;-75
2021/09/29 08:12:53;;;;;;;7.97;1.08;;;16.70;94.10;;;;;;5093494;28;20099;-76
2021/09/29 08:15:19;;;;;;;6.95;1.33;;;17.00;93.80;;;;;;5092937;28;20549;-76
2021/09/29 08:17:46;;;;;;;4.05;1.30;;;17.50;92.00;;;;;;5092906;28;20027;-76
2021/09/29 08:20:16;;;;;;;5.88;1.10;;;17.80;91.10;;;;;;5093215;28;20024;-75
2021/09/29 08:22:43;;;;;;;;;;;17.90;90.90;;;;;;5093589;28;20032;-75
2021/09/29 08:25:28;;;;;;;5.53;1.15;;;18.10;90.30;;;;;;5091592;28;19911;-75
2021/09/29 08:33:06;;;;;;;8.35;1.63;;;18.90;86.20;;;;;;5096702;28;20388;-76
2021/09/29 08:35:41;;;;;;;6.63;1.75;;;19.00;84.10;;;;;;5096723;28;20024;-75
2021/09/29 08:38:12;;;;;;;6.13;1.63;;;19.30;82.00;;;;;;5094832;28;20016;-77
2021/09/29 08:56:40;;;;;;;6.80;1.63;;;21.30;70.70;;;;;;5096352;28;20031;-75
2021/09/29 09:18:31;;;;;;;7.05;2.05;;;21.90;66.30;;;;;;5095912;28;20145;-75
2021/09/29 09:23:40;;;;;;;7.63;2.13;;;22.40;64.00;;;;;;5095791;28;20020;-77
2021/09/29 09:26:12;;;;;;;8.73;1.60;;;22.30;64.90;;;;;;5096039;28;20073;-74
2021/09/29 09:28:38;;;;;;;7.88;1.88;;;22.00;65.40;;;;;;5095654;28;20016;-74
2021/09/29 09:31:19;;;;;;;5.00;1.33;;;22.00;66.90;;;;;;5095510;28;20483;-74
2021/09/29 09:33:53;;;;;;;7.63;1.42;;;21.60;67.50;;;;;;5095896;28;20431;-74
2021/09/29 09:36:31;;;;;;;5.13;1.40;;;21.20;67.30;;;;;;5095528;28;20020;-74
2021/09/29 09:38:58;;;;;;;6.85;1.42;;;21.20;67.90;;;;;;5095164;28;20463;-73
2021/09/29 09:41:24;;;;;;;6.68;1.60;;;21.10;67.30;;;;;;5094788;28;20077;-73
2021/09/29 09:43:55;;;;;;;5.70;1.55;;;20.70;67.90;;;;;;5095093;28;20048;-73
2021/09/29 09:46:22;;;;;;;9.05;1.30;;;20.60;69.20;;;;;;5095043;28;20024;-74
2021/09/29 09:49:11;;;;;;;6.45;1.90;;;20.90;66.80;;;;;;5094996;28;20028;-74
2021/09/29 09:51:48;;;;;;;5.25;1.38;;;21.10;65.00;;;;;;5095223;28;20035;-74
2021/09/29 09:54:15;;;;;;;6.38;1.40;;;21.40;65.60;;;;;;5094884;28;20016;-73
2021/09/29 09:56:43;;;;;;;5.35;1.40;;;21.70;64.50;;;;;;5095152;28;20105;-73
2021/09/29 09:59:09;;;;;;;5.68;1.17;;;21.70;64.00;;;;;;5095086;28;20532;-74
2021/09/29 10:01:35;;;;;;;4.22;1.20;;;21.70;61.80;;;;;;5095067;28;20032;-73
2021/09/29 10:04:14;;;;;;;5.03;1.35;;;21.00;63.00;;;;;;5094675;28;20024;-73
2021/09/29 10:06:40;;;;;;;7.78;1.80;;;20.40;66.60;;;;;;5095285;28;20032;-73
2021/09/29 10:09:33;;;;;;;8.20;1.30;;;19.80;67.80;;;;;;5094637;28;20040;-73
2021/09/29 10:14:52;;;;;;;4.63;1.13;;;19.70;67.10;;;;;;5094495;28;20058;-73
2021/09/29 10:23:17;;;;;;;7.88;1.15;;;19.40;67.00;;;;;;5094662;28;20396;-72
2021/09/29 10:26:21;;;;;;;4.60;1.20;;;19.30;66.50;;;;;;5092759;28;20024;-73
2021/09/29 10:28:47;;;;;;;9.23;1.67;;;19.30;63.50;;;;;;5094861;28;20365;-73
2021/09/29 10:31:37;;;;;;;4.00;1.00;;;19.10;64.30;;;;;;5092804;28;20053;-73
2021/09/29 10:34:25;;;;;;;4.47;1.10;;;18.90;62.40;;;;;;5092612;28;20051;-72
2021/09/29 11:04:48;;;;;;;5.68;1.30;;;18.00;66.90;;;;;;5093428;28;20070;-73
2021/09/29 11:10:21;;;;;;;5.55;1.00;;;18.20;68.90;;;;;;5093352;28;20052;-73
2021/09/29 11:34:48;;;;;;;2.53;1.00;;;18.90;68.70;;;;;;5093652;28;20465;-73
2021/09/29 12:10:27;;;;;;;2.83;1.05;;;18.20;63.60;;;;;;5096734;28;20087;-72
2021/09/29 12:12:54;;;;;;;3.97;0.82;;;18.40;62.80;;;;;;5097078;28;20422;-73
2021/09/29 12:15:20;;;;;;;3.95;0.98;;;18.50;64.50;;;;;;5096807;28;20024;-74
2021/09/29 12:17:50;;;;;;;4.63;1.15;;;18.40;64.60;;;;;;5096758;28;20369;-73
2021/09/29 12:20:28;;;;;;;4.30;1.25;;;18.10;69.90;;;;;;5096711;28;20079;-73
2021/09/29 12:23:00;;;;;;;3.50;1.20;;;17.70;73.10;;;;;;5097033;28;20056;-72
2021/09/29 12:25:44;;;;;;;5.28;1.20;;;17.40;75.40;;;;;;5096676;28;20099;-73
2021/09/29 12:34:10;;;;;;;2.72;0.70;;;17.30;76.90;;;;;;5076866;28;20036;-73
2021/09/29 12:36:36;;;;;;;5.40;1.33;;;17.30;77.00;;;;;;5097014;28;20043;-73
2021/09/29 12:39:15;;;;;;;7.10;1.35;;;17.50;77.20;;;;;;5096453;28;20518;-73
2021/09/29 12:41:51;;;;;;;3.55;1.00;;;17.60;76.60;;;;;;5096563;28;20032;-72
2021/09/29 12:44:18;;;;;;;2.08;0.75;;;17.60;75.90;;;;;;5096645;28;20043;-73
2021/09/29 12:46:50;;;;;;;3.35;0.70;;;17.60;76.50;;;;;;5096250;28;20024;-73
2021/09/29 12:49:19;;;;;;;4.03;0.90;;;17.80;75.60;;;;;;5096204;28;20480;-72
2021/09/29 12:51:53;;;;;;;4.80;2.03;;;17.80;72.30;;;;;;5094791;28;20480;-73
2021/09/29 12:54:21;;;;;;;2.30;0.75;;;17.70;74.20;;;;;;5096159;28;20396;-72
2021/09/29 12:56:47;;;;;;;2.22;0.82;;;17.70;74.40;;;;;;5096025;28;20057;-72
2021/09/29 12:59:12;;;;;;;4.40;0.70;;;17.70;73.50;;;;;;5096265;28;20028;-73
2021/09/29 13:01:38;;;;;;;4.28;1.17;;;17.60;73.90;;;;;;5095925;28;20031;-73
2021/09/29 13:04:04;;;;;;;5.40;1.15;;;17.60;74.10;;;;;;5095892;28;20034;-73
2021/09/29 13:06:30;;;;;;;4.68;1.27;;;17.50;75.50;;;;;;5096135;28;20035;-73
2021/09/29 13:08:55;;;;;;;3.45;1.10;;;17.50;76.30;;;;;;5095611;28;20028;-74
2021/09/29 13:11:21;;;;;;;4.70;1.05;;;17.50;74.90;;;;;;5096052;28;20375;-73
2021/09/29 13:13:47;;;;;;;3.97;1.20;;;17.60;75.10;;;;;;5095994;28;20058;-73
2021/09/29 13:16:12;;;;;;;5.32;0.90;;;17.70;74.30;;;;;;5094978;28;20425;-73
2021/09/29 13:21:10;;;;;;;3.60;1.00;;;17.90;73.20;;;;;;5096014;28;20032;-73
2021/09/29 13:37:06;;;;;;;2.70;0.90;;;17.90;67.20;;;;;;5095863;28;20055;-73
2021/09/29 13:39:31;;;;;;;3.45;1.02;;;17.80;67.30;;;;;;5095237;28;20464;-73
2021/09/29 13:41:57;;;;;;;4.80;1.20;;;17.70;69.00;;;;;;5095454;28;20024;-73
2021/09/29 13:44:25;;;;;;;5.72;0.90;;;17.50;67.10;;;;;;5095147;28;20078;-73
2021/09/29 13:46:52;;;;;;;4.35;0.88;;;17.60;68.30;;;;;;5095069;28;20032;-73
2021/09/29 13:49:19;;;;;;;3.25;0.63;;;17.70;69.40;;;;;;5095018;28;20039;-74
2021/09/29 13:51:47;;;;;;;4.00;1.08;;;17.70;64.30;;;;;;5094922;28;20081;-72
2021/09/29 13:54:18;;;;;;;2.00;0.70;;;17.80;64.30;;;;;;5094946;28;20032;-73
2021/09/29 14:29:34;;;;;;;5.75;1.00;;;17.70;66.70;;;;;;5093532;28;20085;-74
2021/09/29 14:32:13;;;;;;;4.75;0.98;;;17.70;66.10;;;;;;5094163;28;20020;-74
2021/09/29 14:34:39;;;;;;;3.22;0.98;;;17.50;65.40;;;;;;5092666;28;20028;-73
2021/09/29 14:37:04;;;;;;;4.63;1.17;;;17.50;65.60;;;;;;5094158;28;20016;-73
2021/09/29 14:39:30;;;;;;;2.75;0.68;;;17.50;66.70;;;;;;5094076;28;20028;-73
2021/09/29 14:41:56;;;;;;;2.58;1.02;;;17.60;67.00;;;;;;5094064;28;20016;-73
2021/09/29 14:44:21;;;;;;;3.50;0.95;;;17.70;63.90;;;;;;5094020;28;20024;-73
2021/09/29 14:46:47;;;;;;;4.43;0.90;;;17.70;63.50;;;;;;5093967;28;20396;-74
2021/09/29 14:49:13;;;;;;;7.30;1.20;;;17.70;63.20;;;;;;5094138;28;20071;-73
2021/09/29 14:51:38;;;;;;;8.93;1.35;;;17.70;64.00;;;;;;5094348;28;20054;-73
2021/09/29 14:54:06;;;;;;;3.63;1.05;;;17.70;65.50;;;;;;5094106;28;20074;-73
2021/09/29 14:56:32;;;;;;;5.10;1.15;;;17.70;65.00;;;;;;5094319;28;20023;-73
2021/09/29 14:58:58;;;;;;;6.68;1.10;;;17.70;64.60;;;;;;5094035;28;20028;-74
2021/09/29 15:01:24;;;;;;;4.25;0.65;;;17.70;64.70;;;;;;5093974;28;20035;-72
2021/09/29 15:03:51;;;;;;;4.43;0.90;;;17.70;65.50;;;;;;5094192;28;20035;-73
2021/09/29 15:06:17;;;;;;;2.30;0.90;;;17.70;66.50;;;;;;5093678;28;20137;-73
2021/09/29 15:08:43;;;;;;;6.25;1.05;;;17.80;66.40;;;;;;5093408;28;20052;-74
2021/09/29 15:11:12;;;;;;;4.03;1.70;;;17.90;65.70;;;;;;5093786;28;20529;-73
2021/09/29 15:13:49;;;;;;;4.28;0.98;;;17.80;66.30;;;;;;5093550;28;20091;-72
2021/09/29 15:16:25;;;;;;;3.80;1.25;;;17.80;63.60;;;;;;5091989;28;20021;-73
2021/09/29 15:21:46;;;;;;;4.70;1.17;;;17.70;63.40;;;;;;5093403;28;20446;-73
2021/09/29 15:52:09;;;;;;;2.42;0.77;;;17.50;69.50;;;;;;5097550;28;20028;-73
2021/09/29 15:54:32;;;;;;;7.15;1.30;;;17.50;68.90;;;;;;5091407;28;20539;-72
2021/09/29 15:59:40;;;;;;;6.82;0.90;;;17.40;68.40;;;;;;5096952;28;20038;-73
2021/09/29 16:02:13;;;;;;;7.43;1.00;;;17.40;68.80;;;;;;5095585;28;20468;-73
2021/09/29 16:10:18;;;;;;;12.10;1.67;;;17.40;69.20;;;;;;5096758;28;20135;-73
2021/09/29 16:15:32;;;;;;;4.22;1.10;;;17.40;69.00;;;;;;5096840;28;20365;-73
2021/09/29 16:31:28;;;;;;;4.70;1.02;;;17.10;68.50;;;;;;5096279;28;20063;-74
2021/09/29 16:36:23;;;;;;;3.22;1.13;;;17.10;68.70;;;;;;5096754;28;20502;-73
2021/09/29 16:38:50;;;;;;;5.47;1.00;;;17.10;70.10;;;;;;5096395;28;20016;-73
2021/09/29 16:41:17;;;;;;;4.78;1.10;;;17.10;70.60;;;;;;5096928;28;20031;-73
2021/09/29 16:43:44;;;;;;;3.85;1.48;;;17.10;70.60;;;;;;5095314;28;20024;-72
2021/09/29 16:46:13;;;;;;;5.13;1.15;;;17.10;70.00;;;;;;5096263;28;20047;-73
2021/09/29 16:48:40;;;;;;;6.18;1.25;;;17.10;69.60;;;;;;5094936;28;20050;-72
2021/09/29 16:53:44;;;;;;;4.53;0.95;;;17.00;68.70;;;;;;5096191;28;20028;-73
2021/09/29 16:56:10;;;;;;;4.50;1.20;;;17.00;68.40;;;;;;5094838;28;20085;-72
2021/09/29 17:01:10;;;;;;;2.88;0.90;;;16.90;70.00;;;;;;5096061;28;20105;-73
2021/09/29 17:03:38;;;;;;;4.85;1.15;;;17.00;70.10;;;;;;5096254;28;20032;-73
2021/09/29 17:06:04;;;;;;;6.95;1.60;;;17.00;70.70;;;;;;5095934;28;20028;-73
2021/09/29 17:08:30;;;;;;;4.65;0.98;;;16.90;71.00;;;;;;5095876;28;20023;-73